Airfield :
LOGIN :

Register | Disclaimer

   EN    FR    IT 

 










Legend :    VFR   Marginal VFR   IFR   Intensive IFR   Very Intensive IFR
Visi :
Ceiling :
>= 8 km
>= 3000ft
5 to 8 km
1000 to 3000 ft
1500m to 5 km
500 to 1000 ft
800 to 1500m
200 to 500 ft
< 800m
< 200 ft
Symbols :   Thunderstorms  Fog  Heavy snow  Heavy precipitations  Wind > 20 kt
SIGMETs :     Misc.  Thunderstorms  Icing  Turbulence  Mountain Waves  Volcanic Ashes






- Airport Elevation : 863 ft
- IATA code : ZAZ


LEZG - Zaragoza Aragon

CURRENT METAR :
  • 250849Z 25004KT 220V310 9000 -SHRA OVC030 FEW050CB 17/15 Q1027 RESHRA

EXPIRED METARs :
  • 250832Z 32004KT 250V020 4000 SHRA OVC030 FEW050CB 18/15 Q1027
  • 250800Z 28005KT 250V310 9999 SCT030 FEW050CB 17/15 Q1027
  • 250730Z 29005KT 260V320 9999 VCTS FEW050CB SCT070 17/15 Q1026
  • 250700Z 28005KT 8000 -SHRA VCTS FEW035 SCT050CB BKN070 16/14 Q1026
  • 250644Z 30002KT 8000 3500W SHRA FEW035 SCT050CB 17/14 Q1026
  • 250630Z 29003KT 250V320 9000 VCTS FEW035 SCT050CB 18/13 Q1026
  • 250600Z 27006KT 9999 VCTS FEW040 BKN050 FEW060CB 18/13 Q1026

TAF TAF LEZG
Valid from the 25 at 06:00 until the 26 at 06:00 UTC


250500Z 2506/2606 VRB04KT 9999 BKN040 TX27/2513Z TN16/2506Z
PROB30
TEMPO 2506/2516 3000 SHRA FEW060CB
PROB40
TEMPO 2506/2516 3000 TSRA BKN015 FEW060CB
PROB40
TEMPO 2518/2521 3000 TSRA FEW060CB



MET'MAP, your aeronautical weather chart ! - Copyright ORBIFLY December 2007 - Disclaimer

ORBIFLY MET'MAP TEAM :

Programming & Development : Alexandra Zaïnal
Concept & original design : Baudouin d'Aumeries
Assistance for programming : Marc-Olivier Méhu
Technical & hardware support : Manuel Goepfert

Contact : metmap@orbifly.com




SOURCES & CREDITS :

   NOAA